sensor_id;sensor_type;location;lat;lon;timestamp;P1;durP1;ratioP1;P2;durP2;ratioP2
14320;SDS011;7244;47.364;8.464;2023-05-25T00:08:02;17;;;7;;
14320;SDS011;7244;47.364;8.464;2023-05-25T00:24:02;13;;;6;;
14320;SDS011;7244;47.364;8.464;2023-05-25T00:39:01;17;;;6;;
14320;SDS011;7244;47.364;8.464;2023-05-25T00:55:02;16;;;6;;
14320;SDS011;7244;47.364;8.464;2023-05-25T01:11:02;15;;;6;;
14320;SDS011;7244;47.364;8.464;2023-05-25T01:26:02;14;;;5;;
14320;SDS011;7244;47.364;8.464;2023-05-25T01:42:02;14;;;6;;
14320;SDS011;7244;47.364;8.464;2023-05-25T01:58:02;20;;;6;;
14320;SDS011;7244;47.364;8.464;2023-05-25T02:14:02;17;;;6;;
14320;SDS011;7244;47.364;8.464;2023-05-25T02:29:02;21;;;6;;
14320;SDS011;7244;47.364;8.464;2023-05-25T02:45:02;19;;;6;;
14320;SDS011;7244;47.364;8.464;2023-05-25T03:01:01;13;;;6;;
14320;SDS011;7244;47.364;8.464;2023-05-25T03:17:02;14;;;6;;
14320;SDS011;7244;47.364;8.464;2023-05-25T03:32:02;17;;;7;;
14320;SDS011;7244;47.364;8.464;2023-05-25T03:48:02;18;;;7;;
14320;SDS011;7244;47.364;8.464;2023-05-25T04:04:01;17;;;8;;
14320;SDS011;7244;47.364;8.464;2023-05-25T04:19:01;21;;;8;;
14320;SDS011;7244;47.364;8.464;2023-05-25T04:35:02;19;;;8;;
14320;SDS011;7244;47.364;8.464;2023-05-25T04:51:01;19;;;8;;
14320;SDS011;7244;47.364;8.464;2023-05-25T05:07:02;15;;;6;;
14320;SDS011;7244;47.364;8.464;2023-05-25T05:22:01;17;;;7;;
14320;SDS011;7244;47.364;8.464;2023-05-25T05:38:02;18;;;8;;
14320;SDS011;7244;47.364;8.464;2023-05-25T05:54:02;24;;;9;;
14320;SDS011;7244;47.364;8.464;2023-05-25T06:10:01;18;;;7;;
14320;SDS011;7244;47.364;8.464;2023-05-25T06:25:02;18;;;8;;
14320;SDS011;7244;47.364;8.464;2023-05-25T06:41:02;20;;;8;;
14320;SDS011;7244;47.364;8.464;2023-05-25T06:57:01;20;;;8;;
14320;SDS011;7244;47.364;8.464;2023-05-25T07:12:01;13;;;8;;
14320;SDS011;7244;47.364;8.464;2023-05-25T07:28:02;18;;;9;;
14320;SDS011;7244;47.364;8.464;2023-05-25T07:44:01;19;;;9;;
14320;SDS011;7244;47.364;8.464;2023-05-25T08:00:02;14;;;9;;
14320;SDS011;7244;47.364;8.464;2023-05-25T08:15:02;14;;;8;;
14320;SDS011;7244;47.364;8.464;2023-05-25T08:31:02;17;;;9;;
14320;SDS011;7244;47.364;8.464;2023-05-25T08:47:03;17;;;9;;
14320;SDS011;7244;47.364;8.464;2023-05-25T09:03:04;17;;;8;;
14320;SDS011;7244;47.364;8.464;2023-05-25T09:18:02;18;;;8;;
14320;SDS011;7244;47.364;8.464;2023-05-25T09:34:02;18;;;9;;
14320;SDS011;7244;47.364;8.464;2023-05-25T09:50:02;15;;;9;;
14320;SDS011;7244;47.364;8.464;2023-05-25T10:05:02;28;;;9;;
14320;SDS011;7244;47.364;8.464;2023-05-25T10:21:02;16;;;9;;
14320;SDS011;7244;47.364;8.464;2023-05-25T10:37:01;13;;;9;;
14320;SDS011;7244;47.364;8.464;2023-05-25T10:53:02;19;;;9;;
14320;SDS011;7244;47.364;8.464;2023-05-25T11:08:02;19;;;10;;
14320;SDS011;7244;47.364;8.464;2023-05-25T11:24:02;20;;;10;;
14320;SDS011;7244;47.364;8.464;2023-05-25T11:40:05;18;;;10;;
14320;SDS011;7244;47.364;8.464;2023-05-25T11:56:01;16;;;10;;
14320;SDS011;7244;47.364;8.464;2023-05-25T12:11:02;15;;;10;;
14320;SDS011;7244;47.364;8.464;2023-05-25T12:27:01;16;;;10;;
14320;SDS011;7244;47.364;8.464;2023-05-25T12:43:01;20;;;11;;
14320;SDS011;7244;47.364;8.464;2023-05-25T12:58:03;20;;;11;;
14320;SDS011;7244;47.364;8.464;2023-05-25T13:14:02;17;;;10;;
14320;SDS011;7244;47.364;8.464;2023-05-25T13:30:02;14;;;10;;
14320;SDS011;7244;47.364;8.464;2023-05-25T13:46:02;19;;;11;;
14320;SDS011;7244;47.364;8.464;2023-05-25T14:01:02;16;;;10;;
14320;SDS011;7244;47.364;8.464;2023-05-25T14:17:02;21;;;12;;
14320;SDS011;7244;47.364;8.464;2023-05-25T14:33:02;20;;;11;;
14320;SDS011;7244;47.364;8.464;2023-05-25T14:49:02;19;;;11;;
14320;SDS011;7244;47.364;8.464;2023-05-25T15:04:01;20;;;11;;
14320;SDS011;7244;47.364;8.464;2023-05-25T15:20:02;19;;;12;;
14320;SDS011;7244;47.364;8.464;2023-05-25T15:36:02;24;;;13;;
14320;SDS011;7244;47.364;8.464;2023-05-25T15:51:02;17;;;11;;
14320;SDS011;7244;47.364;8.464;2023-05-25T16:07:02;18;;;11;;
14320;SDS011;7244;47.364;8.464;2023-05-25T16:23:01;16;;;9;;
14320;SDS011;7244;47.364;8.464;2023-05-25T16:39:02;14;;;10;;
14320;SDS011;7244;47.364;8.464;2023-05-25T16:54:02;17;;;10;;
14320;SDS011;7244;47.364;8.464;2023-05-25T17:10:02;17;;;10;;
14320;SDS011;7244;47.364;8.464;2023-05-25T17:26:01;15;;;9;;
14320;SDS011;7244;47.364;8.464;2023-05-25T17:42:02;14;;;9;;
14320;SDS011;7244;47.364;8.464;2023-05-25T17:57:02;12;;;8;;
14320;SDS011;7244;47.364;8.464;2023-05-25T18:13:02;13;;;7;;
14320;SDS011;7244;47.364;8.464;2023-05-25T18:29:01;13;;;7;;
14320;SDS011;7244;47.364;8.464;2023-05-25T18:30:01;13;;;7;;
14320;SDS011;7244;47.364;8.464;2023-05-25T18:31:01;13;;;7;;
14320;SDS011;7244;47.364;8.464;2023-05-25T18:32:02;13;;;7;;
14320;SDS011;7244;47.364;8.464;2023-05-25T18:33:01;13;;;7;;
14320;SDS011;7244;47.364;8.464;2023-05-25T18:34:02;13;;;7;;
14320;SDS011;7244;47.364;8.464;2023-05-25T18:35:02;13;;;7;;
14320;SDS011;7244;47.364;8.464;2023-05-25T18:36:01;13;;;7;;
14320;SDS011;7244;47.364;8.464;2023-05-25T18:37:02;13;;;7;;
14320;SDS011;7244;47.364;8.464;2023-05-25T18:38:02;13;;;7;;
14320;SDS011;7244;47.364;8.464;2023-05-25T18:39:02;13;;;7;;
14320;SDS011;7244;47.364;8.464;2023-05-25T18:40:02;13;;;7;;
14320;SDS011;7244;47.364;8.464;2023-05-25T18:41:02;13;;;7;;
14320;SDS011;7244;47.364;8.464;2023-05-25T18:42:02;13;;;7;;
14320;SDS011;7244;47.364;8.464;2023-05-25T18:43:02;12;;;7;;
14320;SDS011;7244;47.364;8.464;2023-05-25T19:00:01;11;;;7;;
14320;SDS011;7244;47.364;8.464;2023-05-25T19:16:02;11;;;6;;
14320;SDS011;7244;47.364;8.464;2023-05-25T19:32:01;8;;;5;;
14320;SDS011;7244;47.364;8.464;2023-05-25T19:47:01;10;;;6;;
14320;SDS011;7244;47.364;8.464;2023-05-25T20:03:01;11;;;7;;
14320;SDS011;7244;47.364;8.464;2023-05-25T20:19:02;12;;;6;;
14320;SDS011;7244;47.364;8.464;2023-05-25T20:35:01;8;;;6;;
14320;SDS011;7244;47.364;8.464;2023-05-25T20:50:01;15;;;6;;
14320;SDS011;7244;47.364;8.464;2023-05-25T21:06:02;10;;;6;;
14320;SDS011;7244;47.364;8.464;2023-05-25T21:22:01;15;;;6;;
14320;SDS011;7244;47.364;8.464;2023-05-25T21:37:02;15;;;6;;
14320;SDS011;7244;47.364;8.464;2023-05-25T21:38:02;15;;;6;;
14320;SDS011;7244;47.364;8.464;2023-05-25T21:39:01;15;;;6;;
14320;SDS011;7244;47.364;8.464;2023-05-25T21:40:01;15;;;6;;
14320;SDS011;7244;47.364;8.464;2023-05-25T21:41:01;15;;;6;;
14320;SDS011;7244;47.364;8.464;2023-05-25T21:42:02;15;;;6;;
14320;SDS011;7244;47.364;8.464;2023-05-25T21:43:02;15;;;6;;
14320;SDS011;7244;47.364;8.464;2023-05-25T21:44:02;15;;;6;;
14320;SDS011;7244;47.364;8.464;2023-05-25T21:45:02;15;;;6;;
14320;SDS011;7244;47.364;8.464;2023-05-25T21:46:02;15;;;6;;
14320;SDS011;7244;47.364;8.464;2023-05-25T21:47:01;15;;;6;;
14320;SDS011;7244;47.364;8.464;2023-05-25T21:48:01;15;;;6;;
14320;SDS011;7244;47.364;8.464;2023-05-25T21:49:01;15;;;6;;
14320;SDS011;7244;47.364;8.464;2023-05-25T21:50:02;15;;;6;;
14320;SDS011;7244;47.364;8.464;2023-05-25T21:51:02;15;;;6;;
14320;SDS011;7244;47.364;8.464;2023-05-25T21:52:01;9;;;5;;
14320;SDS011;7244;47.364;8.464;2023-05-25T22:09:01;11;;;6;;
14320;SDS011;7244;47.364;8.464;2023-05-25T22:25:01;13;;;7;;
14320;SDS011;7244;47.364;8.464;2023-05-25T22:40:02;10;;;6;;
14320;SDS011;7244;47.364;8.464;2023-05-25T22:56:01;10;;;7;;
14320;SDS011;7244;47.364;8.464;2023-05-25T23:12:01;10;;;6;;
14320;SDS011;7244;47.364;8.464;2023-05-25T23:27:01;12;;;7;;
14320;SDS011;7244;47.364;8.464;2023-05-25T23:43:02;12;;;8;;
14320;SDS011;7244;47.364;8.464;2023-05-25T23:59:01;14;;;9;;
